Terminal Aerodrome Forecast
Issued by NWS

Home | Current Version | Previous Version | Text Only | Print | Product List | Glossary On
Versions: 1 2 3 4 5 6 7 8 9 10 11 12 13 14 15 16
297
FTUS45 KABQ 232333
TAFSAF
TAF
KSAF 232333Z 2400/2424 26025G35KT P6SM FEW060
     FM240100 31012KT P6SM FEW060
     FM240400 30007KT P6SM FEW060
     FM241600 27018G28KT P6SM SCT100
     FM242000 29020G30KT P6SM SKC=

USA.gov is the U.S. government's official web portal to all federal, state and local government web resources and services.